sensor_id;sensor_type;location;lat;lon;timestamp;pressure;altitude;pressure_sealevel;temperature;humidity
50590;BME280;36547;50.514;30.840;2023-04-05T00:00:50;100030.24;;;5.08;79.86
50590;BME280;36547;50.514;30.840;2023-04-05T00:01:53;100031.11;;;5.08;79.79
50590;BME280;36547;50.514;30.840;2023-04-05T00:02:57;100026.80;;;5.06;79.87
50590;BME280;36547;50.514;30.840;2023-04-05T00:03:59;100024.98;;;5.08;79.93
50590;BME280;36547;50.514;30.840;2023-04-05T00:05:02;100016.22;;;5.07;79.94
50590;BME280;36547;50.514;30.840;2023-04-05T00:06:06;100024.89;;;5.11;79.85
50590;BME280;36547;50.514;30.840;2023-04-05T00:07:08;100023.07;;;5.13;79.71
50590;BME280;36547;50.514;30.840;2023-04-05T00:08:10;100028.34;;;5.13;79.67
50590;BME280;36547;50.514;30.840;2023-04-05T00:09:12;100031.80;;;5.15;79.65
50590;BME280;36547;50.514;30.840;2023-04-05T00:10:15;100025.75;;;5.11;79.64
50590;BME280;36547;50.514;30.840;2023-04-05T00:11:17;100019.53;;;5.14;79.67
50590;BME280;36547;50.514;30.840;2023-04-05T00:12:20;100017.72;;;5.16;79.60
50590;BME280;36547;50.514;30.840;2023-04-05T00:13:22;100013.31;;;5.16;79.52
50590;BME280;36547;50.514;30.840;2023-04-05T00:14:25;100009.81;;;5.16;79.55
50590;BME280;36547;50.514;30.840;2023-04-05T00:15:27;100014.17;;;5.17;79.48
50590;BME280;36547;50.514;30.840;2023-04-05T00:16:29;100005.36;;;5.18;79.42
50590;BME280;36547;50.514;30.840;2023-04-05T00:17:31;100008.13;;;5.13;79.33
50590;BME280;36547;50.514;30.840;2023-04-05T00:18:33;100003.73;;;5.14;79.38
50590;BME280;36547;50.514;30.840;2023-04-05T00:19:37;100006.45;;;5.11;79.41
50590;BME280;36547;50.514;30.840;2023-04-05T00:20:39;100009.30;;;5.05;79.59
50590;BME280;36547;50.514;30.840;2023-04-05T00:21:42;100017.98;;;5.07;79.65
50590;BME280;36547;50.514;30.840;2023-04-05T00:22:44;100010.20;;;5.04;79.66
50590;BME280;36547;50.514;30.840;2023-04-05T00:23:47;100014.56;;;5.05;79.68
50590;BME280;36547;50.514;30.840;2023-04-05T00:24:50;100010.99;;;5.06;79.67
50590;BME280;36547;50.514;30.840;2023-04-05T00:25:52;100010.20;;;5.04;79.72
50590;BME280;36547;50.514;30.840;2023-04-05T00:26:54;100014.48;;;5.06;79.77
50590;BME280;36547;50.514;30.840;2023-04-05T00:27:57;100005.84;;;5.03;79.82
50590;BME280;36547;50.514;30.840;2023-04-05T00:29:01;100004.94;;;5.04;79.89
50590;BME280;36547;50.514;30.840;2023-04-05T00:30:04;100001.45;;;5.03;79.95
50590;BME280;36547;50.514;30.840;2023-04-05T00:31:07;100000.45;;;5.06;79.91
50590;BME280;36547;50.514;30.840;2023-04-05T00:32:09;100010.99;;;5.06;79.88
50590;BME280;36547;50.514;30.840;2023-04-05T00:33:12;100012.63;;;5.10;79.84
50590;BME280;36547;50.514;30.840;2023-04-05T00:34:14;100012.63;;;5.10;79.73
50590;BME280;36547;50.514;30.840;2023-04-05T00:35:17;100003.91;;;5.08;79.67
50590;BME280;36547;50.514;30.840;2023-04-05T00:36:20;100003.82;;;5.11;79.64
50590;BME280;36547;50.514;30.840;2023-04-05T00:37:23;99995.01;;;5.12;79.59
50590;BME280;36547;50.514;30.840;2023-04-05T00:38:25;100009.17;;;5.08;79.63
50590;BME280;36547;50.514;30.840;2023-04-05T00:39:28;100004.86;;;5.05;79.69
50590;BME280;36547;50.514;30.840;2023-04-05T00:40:31;100002.31;;;5.04;79.78
50590;BME280;36547;50.514;30.840;2023-04-05T00:41:33;100002.19;;;5.07;79.82
50590;BME280;36547;50.514;30.840;2023-04-05T00:42:35;100001.40;;;5.05;79.77
50590;BME280;36547;50.514;30.840;2023-04-05T00:43:38;99993.50;;;5.05;79.79
50590;BME280;36547;50.514;30.840;2023-04-05T00:44:40;99999.55;;;5.07;79.73
50590;BME280;36547;50.514;30.840;2023-04-05T00:45:42;99994.28;;;5.07;79.70
50590;BME280;36547;50.514;30.840;2023-04-05T00:46:45;99994.28;;;5.07;79.71
50590;BME280;36547;50.514;30.840;2023-04-05T00:47:47;100002.31;;;5.04;79.68
50590;BME280;36547;50.514;30.840;2023-04-05T00:48:49;99995.31;;;5.03;79.79
50590;BME280;36547;50.514;30.840;2023-04-05T00:49:52;99993.59;;;5.02;79.75
50590;BME280;36547;50.514;30.840;2023-04-05T00:50:54;99991.77;;;5.04;79.75
50590;BME280;36547;50.514;30.840;2023-04-05T00:51:59;99994.55;;;4.99;79.61
50590;BME280;36547;50.514;30.840;2023-04-05T00:53:02;99991.95;;;4.97;79.72
50590;BME280;36547;50.514;30.840;2023-04-05T00:54:05;99989.37;;;4.96;79.79
50590;BME280;36547;50.514;30.840;2023-04-05T00:55:09;99994.67;;;4.94;79.80
50590;BME280;36547;50.514;30.840;2023-04-05T00:56:13;99988.50;;;4.95;79.86
50590;BME280;36547;50.514;30.840;2023-04-05T00:57:16;99992.05;;;4.94;79.87
50590;BME280;36547;50.514;30.840;2023-04-05T00:58:19;99992.95;;;4.93;79.85
50590;BME280;36547;50.514;30.840;2023-04-05T00:59:22;99986.08;;;4.89;79.95
50590;BME280;36547;50.514;30.840;2023-04-05T01:00:25;99985.96;;;4.92;80.05
50590;BME280;36547;50.514;30.840;2023-04-05T01:01:28;99979.14;;;4.87;80.15
50590;BME280;36547;50.514;30.840;2023-04-05T01:02:33;99977.37;;;4.87;80.15
50590;BME280;36547;50.514;30.840;2023-04-05T01:03:36;99976.50;;;4.87;80.20
50590;BME280;36547;50.514;30.840;2023-04-05T01:04:40;99981.00;;;4.83;80.36
50590;BME280;36547;50.514;30.840;2023-04-05T01:05:54;99973.96;;;4.84;80.38
50590;BME280;36547;50.514;30.840;2023-04-05T01:07:05;99976.45;;;4.88;80.40
50590;BME280;36547;50.514;30.840;2023-04-05T01:09:57;99973.66;;;4.93;80.26
50590;BME280;36547;50.514;30.840;2023-04-05T01:11:03;99967.44;;;4.95;80.03
50590;BME280;36547;50.514;30.840;2023-04-05T01:12:08;99971.84;;;4.95;79.95
50590;BME280;36547;50.514;30.840;2023-04-05T01:13:10;99970.12;;;4.94;79.95
50590;BME280;36547;50.514;30.840;2023-04-05T01:14:13;99965.72;;;4.94;79.94
50590;BME280;36547;50.514;30.840;2023-04-05T01:15:15;99967.53;;;4.92;79.96
50590;BME280;36547;50.514;30.840;2023-04-05T01:16:18;99958.84;;;4.90;79.99
50590;BME280;36547;50.514;30.840;2023-04-05T01:17:22;99956.22;;;4.90;80.02
50590;BME280;36547;50.514;30.840;2023-04-05T01:18:26;99954.41;;;4.91;79.99
50590;BME280;36547;50.514;30.840;2023-04-05T01:19:29;99947.37;;;4.91;80.02
50590;BME280;36547;50.514;30.840;2023-04-05T01:20:33;99951.73;;;4.92;80.07
50590;BME280;36547;50.514;30.840;2023-04-05T01:21:43;99950.01;;;4.91;80.04
50590;BME280;36547;50.514;30.840;2023-04-05T01:23:11;99950.59;;;5.01;80.11
50590;BME280;36547;50.514;30.840;2023-04-05T01:25:56;99950.13;;;4.88;80.15
50590;BME280;36547;50.514;30.840;2023-04-05T01:27:13;99948.36;;;4.89;80.06
50590;BME280;36547;50.514;30.840;2023-04-05T01:29:47;99948.66;;;5.06;79.97
50590;BME280;36547;50.514;30.840;2023-04-05T01:30:57;99952.64;;;4.91;79.95
50590;BME280;36547;50.514;30.840;2023-04-05T01:33:35;99953.05;;;5.06;79.92
50590;BME280;36547;50.514;30.840;2023-04-05T01:36:14;99950.33;;;5.09;79.95
50590;BME280;36547;50.514;30.840;2023-04-05T01:37:17;99957.91;;;4.91;79.98
50590;BME280;36547;50.514;30.840;2023-04-05T01:38:22;99952.64;;;4.91;80.02
50590;BME280;36547;50.514;30.840;2023-04-05T01:39:26;99956.05;;;4.95;79.92
50590;BME280;36547;50.514;30.840;2023-04-05T01:40:30;99955.19;;;4.94;79.90
50590;BME280;36547;50.514;30.840;2023-04-05T01:41:32;99956.09;;;4.93;79.82
50590;BME280;36547;50.514;30.840;2023-04-05T01:42:35;99952.50;;;4.96;79.81
50590;BME280;36547;50.514;30.840;2023-04-05T01:43:37;99952.55;;;4.94;79.84
50590;BME280;36547;50.514;30.840;2023-04-05T01:44:39;99956.81;;;4.98;79.83
50590;BME280;36547;50.514;30.840;2023-04-05T01:45:43;99955.91;;;5.00;79.75
50590;BME280;36547;50.514;30.840;2023-04-05T01:46:45;99944.52;;;4.99;79.66
50590;BME280;36547;50.514;30.840;2023-04-05T01:47:48;99941.92;;;4.97;79.68
50590;BME280;36547;50.514;30.840;2023-04-05T01:48:52;99940.20;;;4.96;79.70
50590;BME280;36547;50.514;30.840;2023-04-05T01:49:54;99941.11;;;4.95;79.78
50590;BME280;36547;50.514;30.840;2023-04-05T01:50:59;99940.20;;;4.96;79.82
50590;BME280;36547;50.514;30.840;2023-04-05T01:52:01;99931.44;;;4.96;79.77
50590;BME280;36547;50.514;30.840;2023-04-05T01:53:03;99948.10;;;4.96;79.82
50590;BME280;36547;50.514;30.840;2023-04-05T01:54:06;99948.01;;;5.00;79.77
50590;BME280;36547;50.514;30.840;2023-04-05T01:55:08;99947.23;;;4.96;79.63
50590;BME280;36547;50.514;30.840;2023-04-05T01:56:12;99943.65;;;4.98;79.69
50590;BME280;36547;50.514;30.840;2023-04-05T01:57:14;99938.39;;;4.98;79.72
50590;BME280;36547;50.514;30.840;2023-04-05T01:58:17;99933.16;;;4.97;79.75
50590;BME280;36547;50.514;30.840;2023-04-05T01:59:19;99927.03;;;4.96;79.73
50590;BME280;36547;50.514;30.840;2023-04-05T02:00:22;99931.30;;;5.01;79.71
50590;BME280;36547;50.514;30.840;2023-04-05T02:01:24;99939.11;;;5.04;79.68
50590;BME280;36547;50.514;30.840;2023-04-05T02:02:26;99939.20;;;5.01;79.65
50590;BME280;36547;50.514;30.840;2023-04-05T02:03:29;99940.92;;;5.02;79.67
50590;BME280;36547;50.514;30.840;2023-04-05T02:04:33;99944.47;;;5.01;79.75
50590;BME280;36547;50.514;30.840;2023-04-05T02:05:35;99935.66;;;5.02;79.71
50590;BME280;36547;50.514;30.840;2023-04-05T02:06:37;99940.87;;;5.03;79.62
50590;BME280;36547;50.514;30.840;2023-04-05T02:07:39;99934.75;;;5.03;79.67
50590;BME280;36547;50.514;30.840;2023-04-05T02:08:41;99925.94;;;5.04;79.66
50590;BME280;36547;50.514;30.840;2023-04-05T02:09:44;99926.03;;;5.01;79.65
50590;BME280;36547;50.514;30.840;2023-04-05T02:10:47;99920.77;;;5.01;79.68
50590;BME280;36547;50.514;30.840;2023-04-05T02:11:49;99919.95;;;4.98;79.76
50590;BME280;36547;50.514;30.840;2023-04-05T02:12:52;99916.41;;;5.00;79.82
50590;BME280;36547;50.514;30.840;2023-04-05T02:13:54;99907.51;;;5.04;79.84
50590;BME280;36547;50.514;30.840;2023-04-05T02:14:56;99909.33;;;5.02;79.72
50590;BME280;36547;50.514;30.840;2023-04-05T02:15:59;99911.05;;;5.03;79.68
50590;BME280;36547;50.514;30.840;2023-04-05T02:17:03;99912.65;;;5.07;79.68
50590;BME280;36547;50.514;30.840;2023-04-05T02:18:05;99916.31;;;5.03;79.69
50590;BME280;36547;50.514;30.840;2023-04-05T02:19:08;99910.02;;;5.07;79.68
50590;BME280;36547;50.514;30.840;2023-04-05T02:20:12;99910.92;;;5.06;79.66
50590;BME280;36547;50.514;30.840;2023-04-05T02:21:14;99918.91;;;5.04;79.64
50590;BME280;36547;50.514;30.840;2023-04-05T02:22:18;99915.33;;;5.05;79.64
50590;BME280;36547;50.514;30.840;2023-04-05T02:23:20;99918.05;;;5.04;79.60
50590;BME280;36547;50.514;30.840;2023-04-05T02:24:23;99924.17;;;5.04;79.65
50590;BME280;36547;50.514;30.840;2023-04-05T02:25:25;99913.69;;;5.03;79.63
50590;BME280;36547;50.514;30.840;2023-04-05T02:26:27;99918.05;;;5.04;79.64
50590;BME280;36547;50.514;30.840;2023-04-05T02:27:31;99914.78;;;4.95;79.71
50590;BME280;36547;50.514;30.840;2023-04-05T02:28:34;99904.16;;;4.98;79.75
50590;BME280;36547;50.514;30.840;2023-04-05T02:29:36;99903.25;;;5.00;79.80
50590;BME280;36547;50.514;30.840;2023-04-05T02:30:38;99904.16;;;4.98;79.83
50590;BME280;36547;50.514;30.840;2023-04-05T02:31:41;99895.44;;;4.96;79.88
50590;BME280;36547;50.514;30.840;2023-04-05T02:32:43;99906.79;;;4.98;79.94
50590;BME280;36547;50.514;30.840;2023-04-05T02:33:46;99896.16;;;5.02;79.96
50590;BME280;36547;50.514;30.840;2023-04-05T02:34:48;99906.79;;;4.98;79.88
50590;BME280;36547;50.514;30.840;2023-04-05T02:35:52;99904.16;;;4.98;79.84
50590;BME280;36547;50.514;30.840;2023-04-05T02:36:55;99899.84;;;4.96;79.81
50590;BME280;36547;50.514;30.840;2023-04-05T02:37:58;99903.34;;;4.96;79.82
50590;BME280;36547;50.514;30.840;2023-04-05T02:39:00;99899.94;;;4.93;79.90
50590;BME280;36547;50.514;30.840;2023-04-05T02:40:06;99898.12;;;4.95;79.92
50590;BME280;36547;50.514;30.840;2023-04-05T02:41:09;99898.12;;;4.95;79.94
50590;BME280;36547;50.514;30.840;2023-04-05T02:42:12;99899.08;;;4.92;79.94
50590;BME280;36547;50.514;30.840;2023-04-05T02:43:15;99892.09;;;4.91;79.96
50590;BME280;36547;50.514;30.840;2023-04-05T02:44:17;99893.03;;;4.90;80.01
50590;BME280;36547;50.514;30.840;2023-04-05T02:45:20;99892.22;;;4.88;80.05
50590;BME280;36547;50.514;30.840;2023-04-05T02:46:25;99893.22;;;4.84;80.20
50590;BME280;36547;50.514;30.840;2023-04-05T02:47:28;99888.86;;;4.83;80.35
50590;BME280;36547;50.514;30.840;2023-04-05T02:48:32;99894.13;;;4.83;80.37
50590;BME280;36547;50.514;30.840;2023-04-05T02:49:35;99902.93;;;4.82;80.45
50590;BME280;36547;50.514;30.840;2023-04-05T02:50:39;99891.45;;;4.85;80.54
50590;BME280;36547;50.514;30.840;2023-04-05T02:51:42;99893.13;;;4.87;80.51
50590;BME280;36547;50.514;30.840;2023-04-05T02:52:46;99893.94;;;4.89;80.43
50590;BME280;36547;50.514;30.840;2023-04-05T02:53:55;99878.69;;;4.99;80.37
50590;BME280;36547;50.514;30.840;2023-04-05T02:54:57;99877.33;;;4.87;80.31
50590;BME280;36547;50.514;30.840;2023-04-05T02:56:01;99869.43;;;4.87;80.29
50590;BME280;36547;50.514;30.840;2023-04-05T02:57:04;99862.44;;;4.86;80.29
50590;BME280;36547;50.514;30.840;2023-04-05T02:58:08;99862.44;;;4.86;80.35
50590;BME280;36547;50.514;30.840;2023-04-05T02:59:12;99865.98;;;4.85;80.38
50590;BME280;36547;50.514;30.840;2023-04-05T03:00:17;99852.87;;;4.84;80.43
50590;BME280;36547;50.514;30.840;2023-04-05T03:01:21;99861.63;;;4.84;80.53
50590;BME280;36547;50.514;30.840;2023-04-05T03:02:24;99858.09;;;4.85;80.45
50590;BME280;36547;50.514;30.840;2023-04-05T03:03:27;99860.72;;;4.85;80.43
50590;BME280;36547;50.514;30.840;2023-04-05T03:04:29;99872.11;;;4.86;80.45
50590;BME280;36547;50.514;30.840;2023-04-05T03:05:33;99874.80;;;4.84;80.44
50590;BME280;36547;50.514;30.840;2023-04-05T03:06:36;99875.61;;;4.86;80.48
50590;BME280;36547;50.514;30.840;2023-04-05T03:07:38;99876.42;;;4.88;80.39
50590;BME280;36547;50.514;30.840;2023-04-05T03:08:42;99878.14;;;4.89;80.35
50590;BME280;36547;50.514;30.840;2023-04-05T03:09:47;99876.42;;;4.88;80.29
50590;BME280;36547;50.514;30.840;2023-04-05T03:10:53;99880.83;;;4.88;80.25
50590;BME280;36547;50.514;30.840;2023-04-05T03:11:55;99875.61;;;4.86;80.20
50590;BME280;36547;50.514;30.840;2023-04-05T03:12:58;99877.47;;;4.83;80.34
50590;BME280;36547;50.514;30.840;2023-04-05T03:14:02;99866.08;;;4.82;80.36
50590;BME280;36547;50.514;30.840;2023-04-05T03:15:09;99873.98;;;4.82;80.48
50590;BME280;36547;50.514;30.840;2023-04-05T03:16:15;99865.22;;;4.82;80.56
50590;BME280;36547;50.514;30.840;2023-04-05T03:17:19;99863.45;;;4.82;80.53
50590;BME280;36547;50.514;30.840;2023-04-05T03:18:23;99859.95;;;4.82;80.55
50590;BME280;36547;50.514;30.840;2023-04-05T03:19:27;99873.98;;;4.82;80.54
50590;BME280;36547;50.514;30.840;2023-04-05T03:21:43;99858.73;;;4.92;80.55
50590;BME280;36547;50.514;30.840;2023-04-05T03:22:47;99873.25;;;4.77;80.72
50590;BME280;36547;50.514;30.840;2023-04-05T03:23:49;99864.45;;;4.78;80.72
50590;BME280;36547;50.514;30.840;2023-04-05T03:24:53;99861.77;;;4.80;80.74
50590;BME280;36547;50.514;30.840;2023-04-05T03:26:00;99862.73;;;4.77;80.69
50590;BME280;36547;50.514;30.840;2023-04-05T03:27:04;99860.91;;;4.79;80.68
50590;BME280;36547;50.514;30.840;2023-04-05T03:28:09;99864.58;;;4.75;80.69
50590;BME280;36547;50.514;30.840;2023-04-05T03:29:13;99871.53;;;4.76;80.81
50590;BME280;36547;50.514;30.840;2023-04-05T03:30:16;99865.36;;;4.77;80.91
50590;BME280;36547;50.514;30.840;2023-04-05T03:31:23;99867.08;;;4.78;80.94
50590;BME280;36547;50.514;30.840;2023-04-05T03:32:25;99871.44;;;4.79;80.93
50590;BME280;36547;50.514;30.840;2023-04-05T03:33:29;99874.88;;;4.81;80.90
50590;BME280;36547;50.514;30.840;2023-04-05T03:34:32;99872.30;;;4.80;80.78
50590;BME280;36547;50.514;30.840;2023-04-05T03:35:37;99869.71;;;4.78;80.73
50590;BME280;36547;50.514;30.840;2023-04-05T03:36:40;99871.53;;;4.76;80.84
50590;BME280;36547;50.514;30.840;2023-04-05T03:37:44;99876.70;;;4.79;80.86
50590;BME280;36547;50.514;30.840;2023-04-05T03:38:47;99874.93;;;4.80;80.90
50590;BME280;36547;50.514;30.840;2023-04-05T03:39:52;99881.02;;;4.82;80.83
50590;BME280;36547;50.514;30.840;2023-04-05T03:40:54;99870.48;;;4.82;80.81
50590;BME280;36547;50.514;30.840;2023-04-05T03:41:56;99874.80;;;4.84;80.78
50590;BME280;36547;50.514;30.840;2023-04-05T03:42:58;99873.02;;;4.85;80.75
50590;BME280;36547;50.514;30.840;2023-04-05T03:44:01;99873.88;;;4.85;80.69
50590;BME280;36547;50.514;30.840;2023-04-05T03:45:04;99871.25;;;4.85;80.68
50590;BME280;36547;50.514;30.840;2023-04-05T03:46:08;99865.17;;;4.83;80.70
50590;BME280;36547;50.514;30.840;2023-04-05T03:47:11;99867.80;;;4.83;80.70
50590;BME280;36547;50.514;30.840;2023-04-05T03:48:14;99870.44;;;4.83;80.71
50590;BME280;36547;50.514;30.840;2023-04-05T03:49:16;99869.53;;;4.84;80.73
50590;BME280;36547;50.514;30.840;2023-04-05T03:50:19;99867.80;;;4.83;80.81
50590;BME280;36547;50.514;30.840;2023-04-05T03:51:21;99875.70;;;4.83;80.81
50590;BME280;36547;50.514;30.840;2023-04-05T03:52:24;99875.65;;;4.85;80.80
50590;BME280;36547;50.514;30.840;2023-04-05T03:53:27;99878.33;;;4.83;80.77
50590;BME280;36547;50.514;30.840;2023-04-05T03:54:29;99883.64;;;4.82;80.79
50590;BME280;36547;50.514;30.840;2023-04-05T03:55:32;99875.79;;;4.80;80.77
50590;BME280;36547;50.514;30.840;2023-04-05T03:56:37;99874.98;;;4.78;80.93
50590;BME280;36547;50.514;30.840;2023-04-05T03:57:47;99874.93;;;4.80;80.96
50590;BME280;36547;50.514;30.840;2023-04-05T03:58:54;99883.69;;;4.80;80.99
50590;BME280;36547;50.514;30.840;2023-04-05T03:59:59;99878.37;;;4.82;81.01
50590;BME280;36547;50.514;30.840;2023-04-05T04:01:03;99882.78;;;4.81;80.98
50590;BME280;36547;50.514;30.840;2023-04-05T04:02:06;99891.59;;;4.80;81.01
50590;BME280;36547;50.514;30.840;2023-04-05T04:03:08;99884.59;;;4.79;81.02
50590;BME280;36547;50.514;30.840;2023-04-05T04:04:12;99888.05;;;4.81;81.03
50590;BME280;36547;50.514;30.840;2023-04-05T04:05:17;99887.14;;;4.82;81.10
50590;BME280;36547;50.514;30.840;2023-04-05T04:06:22;99883.59;;;4.83;81.09
50590;BME280;36547;50.514;30.840;2023-04-05T04:07:24;99881.88;;;4.82;81.02
50590;BME280;36547;50.514;30.840;2023-04-05T04:08:26;99887.09;;;4.84;81.00
50590;BME280;36547;50.514;30.840;2023-04-05T04:09:29;99880.97;;;4.83;80.92
50590;BME280;36547;50.514;30.840;2023-04-05T04:10:33;99889.72;;;4.84;80.97
50590;BME280;36547;50.514;30.840;2023-04-05T04:11:36;99888.95;;;4.80;80.95
50590;BME280;36547;50.514;30.840;2023-04-05T04:12:40;99889.91;;;4.78;80.99
50590;BME280;36547;50.514;30.840;2023-04-05T04:13:42;99893.41;;;4.78;81.06
50590;BME280;36547;50.514;30.840;2023-04-05T04:14:49;99890.77;;;4.78;81.13
50590;BME280;36547;50.514;30.840;2023-04-05T04:16:07;99880.37;;;4.75;81.09
50590;BME280;36547;50.514;30.840;2023-04-05T04:17:34;99883.78;;;4.77;81.15
50590;BME280;36547;50.514;30.840;2023-04-05T04:18:55;99880.37;;;4.75;81.11
50590;BME280;36547;50.514;30.840;2023-04-05T04:20:01;99881.97;;;4.79;81.13
50590;BME280;36547;50.514;30.840;2023-04-05T04:21:11;99875.84;;;4.79;81.12
50590;BME280;36547;50.514;30.840;2023-04-05T04:22:32;99882.92;;;4.77;81.12
50590;BME280;36547;50.514;30.840;2023-04-05T04:23:36;99885.63;;;4.75;81.21
50590;BME280;36547;50.514;30.840;2023-04-05T04:24:52;99883.00;;;4.75;81.26
50590;BME280;36547;50.514;30.840;2023-04-05T04:26:13;99881.15;;;4.77;81.24
50590;BME280;36547;50.514;30.840;2023-04-05T04:27:26;99873.25;;;4.77;81.22
50590;BME280;36547;50.514;30.840;2023-04-05T04:28:33;99871.53;;;4.76;81.23
50590;BME280;36547;50.514;30.840;2023-04-05T04:29:47;99875.20;;;4.72;81.29
50590;BME280;36547;50.514;30.840;2023-04-05T04:30:54;99876.06;;;4.73;81.40
50590;BME280;36547;50.514;30.840;2023-04-05T04:32:15;99864.67;;;4.72;81.46
50590;BME280;36547;50.514;30.840;2023-04-05T04:33:35;99869.94;;;4.72;81.45
50590;BME280;36547;50.514;30.840;2023-04-05T04:34:42;99880.46;;;4.72;81.48
50590;BME280;36547;50.514;30.840;2023-04-05T04:35:46;99867.25;;;4.74;81.52
50590;BME280;36547;50.514;30.840;2023-04-05T04:36:54;99869.02;;;4.73;81.49
50590;BME280;36547;50.514;30.840;2023-04-05T04:38:03;99869.84;;;4.75;81.55
50590;BME280;36547;50.514;30.840;2023-04-05T04:39:26;99862.85;;;4.74;81.60
50590;BME280;36547;50.514;30.840;2023-04-05T04:40:46;99868.85;;;4.78;81.59
50590;BME280;36547;50.514;30.840;2023-04-05T04:41:55;99872.88;;;4.89;81.59
50590;BME280;36547;50.514;30.840;2023-04-05T04:42:59;99870.58;;;4.79;81.72
50590;BME280;36547;50.514;30.840;2023-04-05T04:44:09;99864.35;;;4.81;81.67
50590;BME280;36547;50.514;30.840;2023-04-05T04:45:31;99868.61;;;4.85;81.54
50590;BME280;36547;50.514;30.840;2023-04-05T04:46:42;99865.98;;;4.85;81.40
50590;BME280;36547;50.514;30.840;2023-04-05T04:47:51;99868.30;;;4.94;81.40
50590;BME280;36547;50.514;30.840;2023-04-05T04:48:56;99866.13;;;4.81;81.50
50590;BME280;36547;50.514;30.840;2023-04-05T04:50:06;99867.80;;;4.83;81.52
50590;BME280;36547;50.514;30.840;2023-04-05T04:51:09;99863.40;;;4.84;81.42
50590;BME280;36547;50.514;30.840;2023-04-05T04:52:11;99863.40;;;4.84;81.38
50590;BME280;36547;50.514;30.840;2023-04-05T04:53:14;99865.89;;;4.88;81.33
50590;BME280;36547;50.514;30.840;2023-04-05T04:54:17;99864.16;;;4.87;81.23
50590;BME280;36547;50.514;30.840;2023-04-05T04:55:20;99872.97;;;4.86;81.26
50590;BME280;36547;50.514;30.840;2023-04-05T04:56:22;99863.26;;;4.88;81.25
50590;BME280;36547;50.514;30.840;2023-04-05T04:57:25;99865.08;;;4.86;81.25
50590;BME280;36547;50.514;30.840;2023-04-05T04:58:28;99868.57;;;4.87;81.20
50590;BME280;36547;50.514;30.840;2023-04-05T04:59:32;99868.57;;;4.87;81.27
50590;BME280;36547;50.514;30.840;2023-04-05T05:00:40;99863.26;;;4.88;81.33
50590;BME280;36547;50.514;30.840;2023-04-05T05:01:44;99864.16;;;4.87;81.36
50590;BME280;36547;50.514;30.840;2023-04-05T05:02:47;99865.03;;;4.88;81.33
50590;BME280;36547;50.514;30.840;2023-04-05T05:03:51;99858.80;;;4.90;81.24
50590;BME280;36547;50.514;30.840;2023-04-05T05:04:58;99861.44;;;4.90;81.22
50590;BME280;36547;50.514;30.840;2023-04-05T05:06:00;99862.34;;;4.89;81.26
50590;BME280;36547;50.514;30.840;2023-04-05T05:07:04;99864.90;;;4.91;81.21
50590;BME280;36547;50.514;30.840;2023-04-05T05:08:08;99868.39;;;4.91;81.23
50590;BME280;36547;50.514;30.840;2023-04-05T05:09:12;99868.34;;;4.93;81.20
50590;BME280;36547;50.514;30.840;2023-04-05T05:10:16;99868.39;;;4.91;81.17
50590;BME280;36547;50.514;30.840;2023-04-05T05:11:18;99872.75;;;4.92;81.21
50590;BME280;36547;50.514;30.840;2023-04-05T05:12:21;99863.03;;;4.94;81.18
50590;BME280;36547;50.514;30.840;2023-04-05T05:13:23;99866.58;;;4.93;81.10
50590;BME280;36547;50.514;30.840;2023-04-05T05:14:25;99863.94;;;4.93;81.09
50590;BME280;36547;50.514;30.840;2023-04-05T05:15:27;99866.58;;;4.93;81.16
50590;BME280;36547;50.514;30.840;2023-04-05T05:16:30;99871.03;;;4.91;81.18
50590;BME280;36547;50.514;30.840;2023-04-05T05:17:32;99864.90;;;4.91;81.26
50590;BME280;36547;50.514;30.840;2023-04-05T05:18:34;99863.94;;;4.93;81.29
50590;BME280;36547;50.514;30.840;2023-04-05T05:19:36;99865.66;;;4.94;81.33
50590;BME280;36547;50.514;30.840;2023-04-05T05:20:39;99870.88;;;4.96;81.37
50590;BME280;36547;50.514;30.840;2023-04-05T05:21:41;99856.86;;;4.95;81.32
50590;BME280;36547;50.514;30.840;2023-04-05T05:22:43;99861.16;;;4.98;81.28
50590;BME280;36547;50.514;30.840;2023-04-05T05:23:46;99864.56;;;5.02;81.23
50590;BME280;36547;50.514;30.840;2023-04-05T05:24:48;99863.70;;;5.01;81.22
50590;BME280;36547;50.514;30.840;2023-04-05T05:25:58;99864.52;;;5.03;81.24
50590;BME280;36547;50.514;30.840;2023-04-05T05:27:01;99863.61;;;5.04;81.21
50590;BME280;36547;50.514;30.840;2023-04-05T05:28:03;99855.70;;;5.04;81.22
50590;BME280;36547;50.514;30.840;2023-04-05T05:29:05;99859.20;;;5.05;81.16
50590;BME280;36547;50.514;30.840;2023-04-05T05:30:11;99856.56;;;5.05;81.10
50590;BME280;36547;50.514;30.840;2023-04-05T05:31:13;99855.70;;;5.04;81.10
50590;BME280;36547;50.514;30.840;2023-04-05T05:32:16;99851.39;;;5.02;81.14
50590;BME280;36547;50.514;30.840;2023-04-05T05:33:18;99849.58;;;5.04;81.21
50590;BME280;36547;50.514;30.840;2023-04-05T05:34:20;99847.85;;;5.03;81.25
50590;BME280;36547;50.514;30.840;2023-04-05T05:35:28;99847.91;;;5.01;81.31
50590;BME280;36547;50.514;30.840;2023-04-05T05:36:31;99850.54;;;5.01;81.34
50590;BME280;36547;50.514;30.840;2023-04-05T05:37:33;99853.08;;;5.04;81.33
50590;BME280;36547;50.514;30.840;2023-04-05T05:38:35;99857.48;;;5.04;81.31
50590;BME280;36547;50.514;30.840;2023-04-05T05:39:38;99852.12;;;5.05;81.34
50590;BME280;36547;50.514;30.840;2023-04-05T05:40:41;99862.61;;;5.07;81.27
50590;BME280;36547;50.514;30.840;2023-04-05T05:41:43;99852.08;;;5.07;81.25
50590;BME280;36547;50.514;30.840;2023-04-05T05:42:45;99861.83;;;5.05;81.25
50590;BME280;36547;50.514;30.840;2023-04-05T05:43:48;99859.12;;;5.06;81.27
50590;BME280;36547;50.514;30.840;2023-04-05T05:44:50;99860.11;;;5.04;81.27
50590;BME280;36547;50.514;30.840;2023-04-05T05:45:52;99860.97;;;5.04;81.33
50590;BME280;36547;50.514;30.840;2023-04-05T05:46:55;99857.39;;;5.05;81.36
50590;BME280;36547;50.514;30.840;2023-04-05T05:47:58;99868.02;;;5.04;81.36
50590;BME280;36547;50.514;30.840;2023-04-05T05:49:00;99862.80;;;5.02;81.33
50590;BME280;36547;50.514;30.840;2023-04-05T05:50:03;99867.09;;;5.05;81.33